createdAt,value
2023-03-01T00:01:49.753Z,100901.73
2023-03-01T00:04:17.806Z,100897.23
2023-03-01T00:06:47.192Z,100895.15
2023-03-01T00:09:15.985Z,100898.38
2023-03-01T00:11:45.424Z,100901.55
2023-03-01T00:14:13.673Z,100906.63
2023-03-01T00:16:47.638Z,100903.88
2023-03-01T00:19:20.124Z,100902.83
2023-03-01T00:21:48.370Z,100899.79
2023-03-01T00:29:01.369Z,100899.80
2023-03-01T00:35:59.326Z,100890.19
2023-03-01T00:38:27.241Z,100887.26
2023-03-01T00:40:55.282Z,100884.59
2023-03-01T00:43:27.655Z,100884.73
2023-03-01T00:45:56.684Z,100884.03
2023-03-01T00:48:24.828Z,100882.25
2023-03-01T00:50:53.036Z,100879.44
2023-03-01T00:53:21.273Z,100875.07
2023-03-01T00:55:49.981Z,100868.80
2023-03-01T00:58:18.891Z,100866.75
2023-03-01T01:00:49.937Z,100862.25
2023-03-01T01:03:18.200Z,100859.04
2023-03-01T01:05:47.014Z,100853.49
2023-03-01T01:08:15.533Z,100846.85
2023-03-01T01:10:45.504Z,100844.87
2023-03-01T01:13:17.681Z,100844.90
2023-03-01T01:15:46.338Z,100839.73
2023-03-01T01:18:14.577Z,100837.05
2023-03-01T01:20:44.491Z,100834.59
2023-03-01T01:23:13.494Z,100830.64
2023-03-01T01:25:42.987Z,100829.39
2023-03-01T01:28:11.198Z,100825.59
2023-03-01T01:30:39.187Z,100821.77
2023-03-01T01:33:07.697Z,100826.23
2023-03-01T01:35:35.789Z,100823.55
2023-03-01T01:38:03.787Z,100826.86
2023-03-01T01:40:31.854Z,100823.83
2023-03-01T01:43:03.115Z,100814.52
2023-03-01T01:45:35.430Z,100813.83
2023-03-01T01:48:11.301Z,100811.58
2023-03-01T01:50:41.418Z,100812.23
2023-03-01T01:53:19.216Z,100803.97
2023-03-01T01:55:50.574Z,100797.98
2023-03-01T01:58:19.926Z,100798.98
2023-03-01T02:00:49.455Z,100791.27
2023-03-01T02:03:26.473Z,100793.92
2023-03-01T02:06:16.628Z,100792.30
2023-03-01T02:08:44.774Z,100788.04
2023-03-01T02:11:12.738Z,100788.69
2023-03-01T02:13:41.882Z,100785.84
2023-03-01T02:16:10.580Z,100782.59
2023-03-01T02:18:42.513Z,100786.72
2023-03-01T02:21:23.028Z,100793.77
2023-03-01T02:23:56.825Z,100801.92
2023-03-01T02:26:47.962Z,100788.23
2023-03-01T02:29:16.073Z,100775.63
2023-03-01T02:31:44.267Z,100767.21
2023-03-01T02:34:21.460Z,100760.28
2023-03-01T02:36:53.706Z,100760.24
2023-03-01T02:39:30.327Z,100771.02
2023-03-01T02:42:00.035Z,100766.89
2023-03-01T02:44:28.365Z,100758.02
2023-03-01T02:46:57.226Z,100757.12
2023-03-01T02:49:30.093Z,100756.32
2023-03-01T02:51:58.094Z,100750.91
2023-03-01T02:54:30.287Z,100740.61
2023-03-01T02:56:58.762Z,100725.94
2023-03-01T02:59:30.311Z,100712.86
2023-03-01T03:01:58.491Z,100711.23
2023-03-01T03:04:26.847Z,100706.11
2023-03-01T03:06:55.223Z,100699.56
2023-03-01T03:09:23.523Z,100691.14
2023-03-01T03:11:55.994Z,100688.00
2023-03-01T03:14:24.711Z,100683.54
2023-03-01T03:16:53.062Z,100675.16
2023-03-01T03:19:21.252Z,100679.82
2023-03-01T03:21:50.530Z,100669.45
2023-03-01T03:24:19.532Z,100664.54
2023-03-01T03:26:47.947Z,100667.80
2023-03-01T03:29:16.024Z,100664.77
2023-03-01T03:31:44.031Z,100666.85
2023-03-01T03:34:19.142Z,100664.19
2023-03-01T03:36:47.525Z,100660.77
2023-03-01T03:39:15.456Z,100661.09
2023-03-01T03:41:43.555Z,100657.65
2023-03-01T03:44:11.708Z,100656.55
2023-03-01T03:46:39.733Z,100655.63
2023-03-01T03:49:08.054Z,100659.93
2023-03-01T03:51:36.258Z,100663.36
2023-03-01T03:54:04.859Z,100665.69
2023-03-01T03:56:35.983Z,100668.96
2023-03-01T03:59:04.070Z,100671.86
2023-03-01T04:01:32.316Z,100671.15
2023-03-01T04:04:05.098Z,100670.59
2023-03-01T04:06:33.502Z,100663.54
2023-03-01T04:09:03.440Z,100653.55
2023-03-01T04:11:31.474Z,100655.95
2023-03-01T04:14:00.305Z,100655.97
2023-03-01T04:16:30.848Z,100652.83
2023-03-01T04:19:00.886Z,100652.27
2023-03-01T04:21:29.203Z,100650.24
2023-03-01T04:23:57.812Z,100648.67
2023-03-01T04:26:28.080Z,100651.38
2023-03-01T04:28:56.110Z,100646.50
2023-03-01T04:31:24.290Z,100643.06
2023-03-01T04:33:54.001Z,100648.05
2023-03-01T04:36:27.150Z,100643.57
2023-03-01T04:38:55.712Z,100641.83
2023-03-01T04:41:24.881Z,100637.55
2023-03-01T04:43:53.886Z,100638.94
2023-03-01T04:46:22.706Z,100637.62
2023-03-01T04:48:56.049Z,100637.48
2023-03-01T04:51:24.137Z,100642.61
2023-03-01T04:53:52.666Z,100641.96
2023-03-01T04:56:20.834Z,100644.80
2023-03-01T04:58:48.973Z,100642.86
2023-03-01T05:01:20.410Z,100640.13
2023-03-01T05:03:50.222Z,100641.53
2023-03-01T05:06:18.728Z,100638.70
2023-03-01T05:08:46.691Z,100632.93
2023-03-01T05:11:14.755Z,100632.59
2023-03-01T05:13:42.787Z,100638.44
2023-03-01T05:16:13.902Z,100645.46
2023-03-01T05:18:42.734Z,100649.00
2023-03-01T05:21:17.235Z,100646.60
2023-03-01T05:23:45.779Z,100647.29
2023-03-01T05:26:39.565Z,100650.02
2023-03-01T05:29:02.557Z,100658.18
2023-03-01T05:31:31.961Z,100669.31
2023-03-01T05:34:00.127Z,100671.02
2023-03-01T05:36:28.322Z,100672.80
2023-03-01T05:38:57.012Z,100664.87
2023-03-01T05:41:25.338Z,100668.58
2023-03-01T05:43:54.133Z,100662.02
2023-03-01T05:46:25.418Z,100665.30
2023-03-01T05:48:54.000Z,100658.55
2023-03-01T05:51:23.266Z,100654.86
2023-03-01T05:53:51.325Z,100659.61
2023-03-01T05:56:19.508Z,100665.09
2023-03-01T05:58:48.818Z,100667.15
2023-03-01T06:01:17.113Z,100664.88
2023-03-01T06:03:48.175Z,100666.25
2023-03-01T06:06:17.029Z,100663.50
2023-03-01T06:08:45.758Z,100667.16
2023-03-01T06:11:14.620Z,100672.20
2023-03-01T06:13:43.818Z,100669.58
2023-03-01T06:16:14.623Z,100667.21
2023-03-01T06:18:43.738Z,100669.48
2023-03-01T06:21:11.959Z,100667.70
2023-03-01T06:23:41.472Z,100668.09
2023-03-01T06:26:09.607Z,100657.52
2023-03-01T06:28:40.077Z,100651.45
2023-03-01T06:31:10.706Z,100641.17
2023-03-01T06:33:38.670Z,100636.20
2023-03-01T06:36:08.788Z,100629.83
2023-03-01T06:38:37.086Z,100631.35
2023-03-01T06:41:05.502Z,100624.98
2023-03-01T06:43:33.928Z,100623.73
2023-03-01T06:46:05.097Z,100625.84
2023-03-01T06:48:34.724Z,100626.31
2023-03-01T06:51:03.754Z,100620.55
2023-03-01T06:53:32.064Z,100621.66
2023-03-01T06:56:01.288Z,100621.39
2023-03-01T06:58:29.717Z,100616.65
2023-03-01T07:00:57.871Z,100617.92
2023-03-01T07:03:26.196Z,100620.23
2023-03-01T07:05:54.208Z,100627.73
2023-03-01T07:08:23.818Z,100631.70
2023-03-01T07:10:58.964Z,100634.70
2023-03-01T07:13:29.348Z,100639.11
2023-03-01T07:15:58.059Z,100644.47
2023-03-01T07:18:26.401Z,100645.45
2023-03-01T07:21:08.324Z,100644.65
2023-03-01T07:23:37.232Z,100640.91
2023-03-01T07:26:05.568Z,100649.39
2023-03-01T07:28:37.069Z,100642.98
2023-03-01T07:31:06.235Z,100644.30
2023-03-01T07:33:36.370Z,100645.06
2023-03-01T07:36:05.052Z,100656.40
2023-03-01T07:38:33.444Z,100657.89
2023-03-01T07:41:03.076Z,100650.91
2023-03-01T07:43:32.048Z,100649.31
2023-03-01T07:46:01.638Z,100643.42
2023-03-01T07:48:30.190Z,100640.38
2023-03-01T07:51:02.702Z,100637.49
2023-03-01T07:53:32.309Z,100633.92
2023-03-01T07:56:04.474Z,100632.02
2023-03-01T07:58:32.521Z,100631.36
2023-03-01T08:01:05.009Z,100632.16
2023-03-01T08:03:33.703Z,100629.47
2023-03-01T08:06:05.643Z,100627.88
2023-03-01T08:08:33.932Z,100632.48
2023-03-01T08:11:04.265Z,100631.43
2023-03-01T08:13:32.313Z,100630.53
2023-03-01T08:16:05.135Z,100633.70
2023-03-01T08:18:33.494Z,100637.98
2023-03-01T08:21:06.313Z,100640.73
2023-03-01T08:23:38.165Z,100638.30
2023-03-01T08:26:09.158Z,100637.02
2023-03-01T08:28:37.494Z,100636.80
2023-03-01T08:31:19.192Z,100638.61
2023-03-01T08:33:57.560Z,100632.23
2023-03-01T08:36:34.084Z,100632.31
2023-03-01T08:39:02.460Z,100627.94
2023-03-01T08:41:31.058Z,100630.94
2023-03-01T08:44:02.278Z,100628.30
2023-03-01T08:46:35.200Z,100622.94
2023-03-01T08:49:14.430Z,100616.62
2023-03-01T08:51:43.092Z,100616.59
2023-03-01T08:54:16.825Z,100620.22
2023-03-01T08:56:45.533Z,100622.39
2023-03-01T08:59:15.296Z,100622.77
2023-03-01T09:01:45.878Z,100624.05
2023-03-01T09:04:14.192Z,100623.45
2023-03-01T09:06:43.122Z,100619.63
2023-03-01T09:09:17.171Z,100622.55
2023-03-01T09:11:47.262Z,100615.48
2023-03-01T09:14:19.717Z,100613.63
2023-03-01T09:16:49.075Z,100618.29
2023-03-01T09:19:17.459Z,100619.55
2023-03-01T09:21:54.174Z,100621.27
2023-03-01T09:24:23.756Z,100623.21
2023-03-01T09:26:57.037Z,100625.49
2023-03-01T09:29:25.518Z,100623.12
2023-03-01T09:31:56.496Z,100616.54
2023-03-01T09:34:25.022Z,100619.54
2023-03-01T09:36:53.327Z,100624.53
2023-03-01T09:39:21.613Z,100632.90
2023-03-01T09:42:03.283Z,100632.74
2023-03-01T09:44:54.970Z,100642.64
2023-03-01T09:47:27.875Z,100636.48
2023-03-01T09:50:02.836Z,100631.71
2023-03-01T09:52:51.555Z,100626.61
2023-03-01T09:55:26.954Z,100624.13
2023-03-01T09:57:58.006Z,100618.48
2023-03-01T10:00:48.939Z,100616.68
2023-03-01T10:03:24.217Z,100619.06
2023-03-01T10:06:35.333Z,100624.60
2023-03-01T10:09:11.828Z,100616.95
2023-03-01T10:11:42.895Z,100618.67
2023-03-01T10:14:40.553Z,100619.98
2023-03-01T10:17:29.676Z,100616.83
2023-03-01T10:19:58.635Z,100620.46
2023-03-01T10:22:30.241Z,100624.27
2023-03-01T10:25:00.785Z,100624.64
2023-03-01T10:27:52.792Z,100617.73
2023-03-01T10:30:36.245Z,100620.61
2023-03-01T10:33:05.089Z,100611.91
2023-03-01T10:35:37.251Z,100609.83
2023-03-01T10:38:05.494Z,100602.81
2023-03-01T10:40:34.738Z,100601.30
2023-03-01T10:43:04.919Z,100598.12
2023-03-01T10:45:37.717Z,100598.56
2023-03-01T10:48:20.370Z,100597.79
2023-03-01T10:50:50.199Z,100596.49
2023-03-01T10:53:27.295Z,100594.58
2023-03-01T10:56:12.032Z,100589.70
2023-03-01T10:58:42.071Z,100588.69
2023-03-01T11:01:16.379Z,100592.09
2023-03-01T11:03:45.576Z,100594.67
2023-03-01T11:06:13.584Z,100591.69
2023-03-01T11:08:46.142Z,100597.52
2023-03-01T11:11:24.652Z,100592.23
2023-03-01T11:14:00.833Z,100591.87
2023-03-01T11:16:39.032Z,100590.66
2023-03-01T11:19:10.336Z,100588.41
2023-03-01T11:21:42.590Z,100588.23
2023-03-01T11:24:12.731Z,100590.02
2023-03-01T11:26:43.490Z,100591.83
2023-03-01T11:29:47.751Z,100589.55
2023-03-01T11:32:16.570Z,100586.59
2023-03-01T11:35:06.757Z,100583.95
2023-03-01T11:37:39.075Z,100579.11
2023-03-01T11:40:24.326Z,100572.30
2023-03-01T11:42:57.742Z,100575.85
2023-03-01T11:45:26.474Z,100585.71
2023-03-01T11:48:20.902Z,100590.53
2023-03-01T11:50:49.638Z,100589.00
2023-03-01T11:53:41.193Z,100587.67
2023-03-01T11:56:30.006Z,100592.48
2023-03-01T11:59:00.816Z,100591.02
2023-03-01T12:02:08.367Z,100588.86
2023-03-01T12:04:42.073Z,100590.05
2023-03-01T12:07:25.633Z,100593.39
2023-03-01T12:10:03.288Z,100593.52
2023-03-01T12:12:49.612Z,100597.39
2023-03-01T12:15:33.203Z,100602.97
2023-03-01T12:18:32.673Z,100604.18
2023-03-01T12:21:16.126Z,100605.03
2023-03-01T12:23:48.354Z,100606.53
2023-03-01T12:26:21.236Z,100609.42
2023-03-01T12:29:25.780Z,100613.92
2023-03-01T12:32:18.357Z,100620.31
2023-03-01T12:34:57.914Z,100620.67
2023-03-01T12:37:37.714Z,100618.73
2023-03-01T12:40:34.119Z,100624.98
2023-03-01T12:43:23.985Z,100621.94
2023-03-01T12:45:56.038Z,100625.14
2023-03-01T12:48:47.108Z,100623.11
2023-03-01T12:51:18.203Z,100622.95
2023-03-01T12:53:48.949Z,100613.13
2023-03-01T12:56:25.245Z,100614.77
2023-03-01T12:59:02.268Z,100620.68
2023-03-01T13:01:47.915Z,100619.48
2023-03-01T13:04:49.100Z,100620.15
2023-03-01T13:07:30.051Z,100618.04
2023-03-01T13:10:23.064Z,100618.44
2023-03-01T13:12:58.827Z,100615.90
2023-03-01T13:15:29.146Z,100625.34
2023-03-01T13:17:58.771Z,100623.73
2023-03-01T13:20:35.973Z,100628.70
2023-03-01T13:23:13.758Z,100629.27
2023-03-01T13:26:05.444Z,100627.83
2023-03-01T13:28:57.012Z,100624.38
2023-03-01T13:31:27.918Z,100624.48
2023-03-01T13:33:57.147Z,100625.81
2023-03-01T13:36:28.986Z,100623.81
2023-03-01T13:39:01.034Z,100626.73
2023-03-01T13:41:44.837Z,100622.68
2023-03-01T13:44:36.982Z,100620.32
2023-03-01T13:47:15.516Z,100627.18
2023-03-01T13:49:47.712Z,100622.84
2023-03-01T13:52:41.739Z,100627.02
2023-03-01T13:55:15.623Z,100631.00
2023-03-01T13:57:55.984Z,100626.23
2023-03-01T14:00:37.228Z,100627.95
2023-03-01T14:03:14.178Z,100636.33
2023-03-01T14:05:45.684Z,100634.73
2023-03-01T14:08:22.423Z,100633.84
2023-03-01T14:11:06.995Z,100631.02
2023-03-01T14:13:42.639Z,100630.06
2023-03-01T14:16:38.516Z,100629.77
2023-03-01T14:19:38.165Z,100633.70
2023-03-01T14:22:30.465Z,100632.77
2023-03-01T14:25:02.847Z,100630.71
2023-03-01T14:27:40.539Z,100630.60
2023-03-01T14:30:38.931Z,100635.11
2023-03-01T14:33:21.959Z,100634.67
2023-03-01T14:35:54.050Z,100633.43
2023-03-01T14:38:24.397Z,100629.66
2023-03-01T14:40:53.430Z,100628.77
2023-03-01T14:43:21.747Z,100631.16
2023-03-01T14:45:50.914Z,100625.84
2023-03-01T14:48:19.013Z,100624.80
2023-03-01T14:50:47.389Z,100624.41
2023-03-01T14:53:21.173Z,100627.80
2023-03-01T14:55:51.826Z,100627.73
2023-03-01T14:58:21.790Z,100630.30
2023-03-01T15:00:55.196Z,100629.54
2023-03-01T15:03:38.212Z,100636.63
2023-03-01T15:06:07.229Z,100638.08
2023-03-01T15:08:36.619Z,100636.20
2023-03-01T15:11:25.978Z,100633.39
2023-03-01T15:13:56.225Z,100636.05
2023-03-01T15:16:31.982Z,100640.88
2023-03-01T15:19:05.593Z,100640.33
2023-03-01T15:21:40.295Z,100644.94
2023-03-01T15:24:20.468Z,100647.52
2023-03-01T15:26:58.662Z,100652.02
2023-03-01T15:29:31.373Z,100651.46
2023-03-01T15:32:01.015Z,100654.42
2023-03-01T15:34:31.847Z,100652.40
2023-03-01T15:37:06.811Z,100653.95
2023-03-01T15:39:46.631Z,100652.16
2023-03-01T15:42:28.032Z,100651.33
2023-03-01T15:45:21.814Z,100654.84
2023-03-01T15:47:58.781Z,100655.24
2023-03-01T15:50:29.194Z,100657.92
2023-03-01T15:53:00.862Z,100656.89
2023-03-01T15:55:31.010Z,100659.70
2023-03-01T15:58:24.327Z,100657.27
2023-03-01T16:01:01.951Z,100661.79
2023-03-01T16:03:30.449Z,100663.48
2023-03-01T16:05:58.926Z,100660.79
2023-03-01T16:08:27.265Z,100664.39
2023-03-01T16:10:56.658Z,100665.08
2023-03-01T16:13:28.364Z,100669.23
2023-03-01T16:16:04.118Z,100671.90
2023-03-01T16:18:32.458Z,100674.19
2023-03-01T16:21:00.598Z,100672.90
2023-03-01T16:23:28.621Z,100673.75
2023-03-01T16:26:00.763Z,100674.65
2023-03-01T16:28:30.222Z,100678.39
2023-03-01T16:30:58.425Z,100679.63
2023-03-01T16:33:33.670Z,100680.34
2023-03-01T16:36:09.030Z,100680.50
2023-03-01T16:38:37.837Z,100683.95
2023-03-01T16:41:06.717Z,100685.43
2023-03-01T16:43:34.777Z,100685.90
2023-03-01T16:46:11.928Z,100681.55
2023-03-01T16:48:40.849Z,100682.83
2023-03-01T16:51:11.957Z,100692.30
2023-03-01T16:53:47.800Z,100690.50
2023-03-01T16:56:18.817Z,100692.17
2023-03-01T16:58:47.987Z,100689.24
2023-03-01T17:01:25.459Z,100688.73
2023-03-01T17:03:54.274Z,100689.41
2023-03-01T17:06:24.602Z,100691.99
2023-03-01T17:08:58.066Z,100686.33
2023-03-01T17:11:26.036Z,100688.76
2023-03-01T17:13:56.597Z,100687.53
2023-03-01T17:16:25.257Z,100685.38
2023-03-01T17:18:53.384Z,100684.36
2023-03-01T17:21:21.556Z,100686.28
2023-03-01T17:23:50.431Z,100683.57
2023-03-01T17:26:19.758Z,100682.04
2023-03-01T17:28:52.354Z,100683.40
2023-03-01T17:31:20.812Z,100686.21
2023-03-01T17:33:50.099Z,100686.64
2023-03-01T17:36:18.746Z,100689.27
2023-03-01T17:38:47.315Z,100683.58
2023-03-01T17:41:17.843Z,100682.52
2023-03-01T17:43:46.043Z,100688.62
2023-03-01T17:46:14.179Z,100687.82
2023-03-01T17:48:42.316Z,100687.56
2023-03-01T17:51:30.485Z,100684.29
2023-03-01T17:53:58.832Z,100685.75
2023-03-01T17:56:27.287Z,100680.95
2023-03-01T17:59:02.105Z,100684.63
2023-03-01T18:01:31.560Z,100687.34
2023-03-01T18:04:00.207Z,100683.36
2023-03-01T18:06:29.332Z,100688.38
2023-03-01T18:08:57.470Z,100683.71
2023-03-01T18:11:25.552Z,100686.79
2023-03-01T18:13:56.238Z,100691.52
2023-03-01T18:16:24.642Z,100691.46
2023-03-01T18:18:58.052Z,100689.88
2023-03-01T18:21:26.348Z,100688.30
2023-03-01T18:23:54.766Z,100684.67
2023-03-01T18:26:23.032Z,100687.55
2023-03-01T18:28:51.802Z,100690.95
2023-03-01T18:31:25.561Z,100691.67
2023-03-01T18:33:55.228Z,100696.92
2023-03-01T18:36:24.811Z,100701.36
2023-03-01T18:38:53.861Z,100705.39
2023-03-01T18:41:22.328Z,100702.21
2023-03-01T18:43:50.689Z,100707.65
2023-03-01T18:46:20.470Z,100705.44
2023-03-01T18:48:49.211Z,100707.05
2023-03-01T18:51:19.264Z,100704.98
2023-03-01T18:53:47.878Z,100708.63
2023-03-01T18:56:16.596Z,100715.35
2023-03-01T18:58:44.748Z,100716.52
2023-03-01T19:01:24.124Z,100721.20
2023-03-01T19:03:53.539Z,100721.52
2023-03-01T19:06:21.828Z,100718.20
2023-03-01T19:08:58.552Z,100722.09
2023-03-01T19:11:31.355Z,100722.05
2023-03-01T19:14:00.283Z,100722.48
2023-03-01T19:16:30.680Z,100723.80
2023-03-01T19:19:00.587Z,100726.61
2023-03-01T19:21:30.265Z,100728.15
2023-03-01T19:23:59.292Z,100727.72
2023-03-01T19:26:28.342Z,100731.50
2023-03-01T19:28:56.637Z,100737.08
2023-03-01T19:31:27.129Z,100735.17
2023-03-01T19:34:05.265Z,100735.95
2023-03-01T19:36:38.299Z,100737.14
2023-03-01T19:39:07.094Z,100740.74
2023-03-01T19:41:36.785Z,100740.08
2023-03-01T19:44:06.024Z,100741.69
2023-03-01T19:46:35.120Z,100741.48
2023-03-01T19:49:03.788Z,100742.98
2023-03-01T19:51:36.794Z,100744.60
2023-03-01T19:54:06.091Z,100741.31
2023-03-01T19:56:34.957Z,100737.00
2023-03-01T19:59:04.580Z,100740.19
2023-03-01T20:01:34.719Z,100739.73
2023-03-01T20:04:09.425Z,100738.73
2023-03-01T20:06:40.373Z,100742.58
2023-03-01T20:09:20.357Z,100744.52
2023-03-01T20:11:51.779Z,100745.95
2023-03-01T20:14:24.445Z,100741.84
2023-03-01T20:16:54.662Z,100740.02
2023-03-01T20:19:23.027Z,100738.66
2023-03-01T20:21:53.762Z,100736.14
2023-03-01T20:24:23.058Z,100735.42
2023-03-01T20:26:51.070Z,100732.96
2023-03-01T20:29:19.995Z,100732.16
2023-03-01T20:31:48.307Z,100732.52
2023-03-01T20:34:16.432Z,100734.35
2023-03-01T20:36:44.544Z,100737.50
2023-03-01T20:39:14.363Z,100742.48
2023-03-01T20:41:46.308Z,100742.58
2023-03-01T20:44:18.044Z,100748.18
2023-03-01T20:46:46.146Z,100750.41
2023-03-01T20:49:14.337Z,100759.85
2023-03-01T20:51:42.647Z,100761.02
2023-03-01T20:54:14.111Z,100756.61
2023-03-01T20:56:43.287Z,100757.20
2023-03-01T20:59:11.826Z,100757.70
2023-03-01T21:01:40.676Z,100757.54
2023-03-01T21:04:10.160Z,100754.62
2023-03-01T21:06:39.714Z,100755.74
2023-03-01T21:09:07.809Z,100758.13
2023-03-01T21:11:40.744Z,100754.62
2023-03-01T21:14:09.204Z,100752.23
2023-03-01T21:16:37.465Z,100749.70
2023-03-01T21:19:11.696Z,100750.23
2023-03-01T21:21:41.436Z,100754.31
2023-03-01T21:24:11.905Z,100748.64
2023-03-01T21:26:42.195Z,100747.55
2023-03-01T21:29:10.119Z,100749.64
2023-03-01T21:31:38.903Z,100750.23
2023-03-01T21:34:07.385Z,100746.52
2023-03-01T21:36:38.842Z,100742.73
2023-03-01T21:39:07.256Z,100741.05
2023-03-01T21:41:36.862Z,100743.20
2023-03-01T21:44:07.294Z,100744.13
2023-03-01T21:46:37.816Z,100741.86
2023-03-01T21:49:07.317Z,100741.18
2023-03-01T21:51:36.746Z,100743.45
2023-03-01T21:54:07.918Z,100743.79
2023-03-01T21:56:39.171Z,100740.52
2023-03-01T21:59:09.246Z,100747.81
2023-03-01T22:01:37.643Z,100750.44
2023-03-01T22:04:05.808Z,100745.02
2023-03-01T22:06:40.338Z,100740.09
2023-03-01T22:09:13.505Z,100741.21
2023-03-01T22:11:49.636Z,100735.08
2023-03-01T22:14:18.963Z,100737.04
2023-03-01T22:16:47.797Z,100735.17
2023-03-01T22:19:16.338Z,100736.87
2023-03-01T22:21:45.821Z,100736.55
2023-03-01T22:24:15.219Z,100737.17
2023-03-01T22:26:43.715Z,100739.90
2023-03-01T22:29:17.733Z,100738.66
2023-03-01T22:31:46.098Z,100739.58
2023-03-01T22:34:15.016Z,100742.30
2023-03-01T22:36:43.203Z,100744.64
2023-03-01T22:39:11.506Z,100746.09
2023-03-01T22:41:45.023Z,100748.38
2023-03-01T22:44:18.735Z,100749.64
2023-03-01T22:46:52.074Z,100750.80
2023-03-01T22:49:20.613Z,100746.55
2023-03-01T22:51:48.699Z,100745.02
2023-03-01T22:54:17.124Z,100737.40
2023-03-01T22:56:48.626Z,100734.95
2023-03-01T22:59:23.139Z,100740.42
2023-03-01T23:01:52.261Z,100744.23
2023-03-01T23:04:21.153Z,100747.14
2023-03-01T23:06:56.926Z,100747.41
2023-03-01T23:09:31.255Z,100748.96
2023-03-01T23:12:01.447Z,100745.66
2023-03-01T23:14:31.310Z,100739.71
2023-03-01T23:17:01.577Z,100738.79
2023-03-01T23:19:30.090Z,100739.98
2023-03-01T23:21:58.132Z,100743.27
2023-03-01T23:24:31.647Z,100742.50
2023-03-01T23:27:02.429Z,100736.57
2023-03-01T23:29:32.317Z,100729.98
2023-03-01T23:32:00.561Z,100731.85
2023-03-01T23:34:29.278Z,100730.50
2023-03-01T23:41:44.366Z,100732.96
2023-03-01T23:45:31.701Z,100734.88
2023-03-01T23:47:59.965Z,100735.77
2023-03-01T23:50:30.502Z,100735.17
2023-03-01T23:52:58.571Z,100732.67
2023-03-01T23:55:27.050Z,100728.02
2023-03-01T23:57:55.174Z,100731.21
